createdAt,value
2019-01-18T00:02:36.218Z,9.97
2019-01-18T00:07:42.473Z,8.93
2019-01-18T00:12:48.762Z,8.80
2019-01-18T00:17:55.134Z,12.47
2019-01-18T00:23:01.371Z,8.80
2019-01-18T00:28:07.826Z,11.17
2019-01-18T00:33:14.034Z,6.77
2019-01-18T00:38:20.204Z,11.03
2019-01-18T00:43:26.314Z,7.57
2019-01-18T00:48:32.600Z,13.37
2019-01-18T00:53:38.816Z,19.27
2019-01-18T00:58:45.162Z,15.70
2019-01-18T01:03:51.454Z,10.03
2019-01-18T01:08:57.686Z,11.27
2019-01-18T01:14:03.934Z,9.40
2019-01-18T01:19:10.139Z,12.57
2019-01-18T01:24:16.436Z,10.00
2019-01-18T01:29:22.746Z,10.60
2019-01-18T01:34:29.079Z,11.30
2019-01-18T01:39:35.510Z,8.47
2019-01-18T01:44:41.899Z,10.53
2019-01-18T01:49:48.054Z,13.40
2019-01-18T01:54:54.751Z,13.30
2019-01-18T02:00:00.916Z,10.23
2019-01-18T02:05:07.239Z,13.03
2019-01-18T02:10:14.590Z,6.33
2019-01-18T02:15:22.864Z,14.73
2019-01-18T02:20:29.219Z,15.13
2019-01-18T02:25:35.614Z,15.17
2019-01-18T02:30:41.974Z,8.90
2019-01-18T02:35:48.210Z,10.03
2019-01-18T02:40:54.553Z,12.70
2019-01-18T02:46:00.950Z,11.13
2019-01-18T02:51:07.210Z,10.07
2019-01-18T02:56:13.671Z,14.43
2019-01-18T03:01:19.760Z,15.67
2019-01-18T03:06:26.014Z,19.50
2019-01-18T03:11:32.269Z,9.27
2019-01-18T03:16:38.959Z,15.60
2019-01-18T03:21:45.245Z,10.63
2019-01-18T03:26:51.610Z,7.13
2019-01-18T03:31:57.829Z,8.53
2019-01-18T03:37:04.259Z,7.47
2019-01-18T03:42:12.210Z,11.13
2019-01-18T03:47:18.436Z,18.63
2019-01-18T03:52:24.665Z,9.63
2019-01-18T03:57:31.029Z,10.17
2019-01-18T04:02:37.233Z,10.17
2019-01-18T04:07:43.691Z,11.60
2019-01-18T04:12:50.078Z,10.63
2019-01-18T04:17:56.395Z,12.63
2019-01-18T04:23:02.714Z,10.57
2019-01-18T04:28:09.077Z,11.43
2019-01-18T04:33:15.400Z,8.20
2019-01-18T04:38:24.010Z,13.00
2019-01-18T04:43:30.346Z,6.70
2019-01-18T04:48:36.838Z,13.00
2019-01-18T04:53:43.123Z,9.27
2019-01-18T04:58:49.513Z,8.70
2019-01-18T05:03:57.492Z,9.03
2019-01-18T05:09:05.401Z,14.63
2019-01-18T05:14:11.988Z,10.07
2019-01-18T05:19:18.386Z,8.77
2019-01-18T05:24:24.702Z,9.63
2019-01-18T05:29:32.141Z,14.93
2019-01-18T05:34:38.639Z,12.33
2019-01-18T05:39:44.857Z,11.20
2019-01-18T05:44:51.134Z,11.87
2019-01-18T05:49:57.528Z,13.07
2019-01-18T05:55:03.835Z,9.40
2019-01-18T06:00:15.904Z,9.37
2019-01-18T06:05:23.003Z,10.20
2019-01-18T06:10:29.175Z,10.90
2019-01-18T06:15:35.715Z,18.63
2019-01-18T06:20:42.018Z,12.03
2019-01-18T06:25:48.212Z,13.00
2019-01-18T06:30:54.508Z,17.20
2019-01-18T06:36:01.142Z,10.47
2019-01-18T06:41:18.048Z,12.80
2019-01-18T06:46:24.325Z,11.43
2019-01-18T06:51:30.782Z,9.40
2019-01-18T06:56:37.076Z,9.93
2019-01-18T07:01:43.499Z,11.90
2019-01-18T07:06:50.003Z,10.80
2019-01-18T07:11:56.284Z,13.73
2019-01-18T07:17:02.518Z,13.97
2019-01-18T07:22:09.073Z,12.60
2019-01-18T07:27:15.185Z,13.77
2019-01-18T07:32:21.596Z,13.07
2019-01-18T07:37:28.347Z,12.57
2019-01-18T07:42:34.734Z,11.73
2019-01-18T07:47:41.307Z,13.37
2019-01-18T07:52:47.757Z,10.80
2019-01-18T07:57:54.151Z,6.53
2019-01-18T08:03:01.350Z,12.30
2019-01-18T08:08:07.833Z,16.17
2019-01-18T08:13:14.102Z,12.67
2019-01-18T08:18:20.587Z,9.37
2019-01-18T08:23:26.931Z,9.83
2019-01-18T08:28:33.396Z,8.13
2019-01-18T08:33:39.836Z,11.63
2019-01-18T08:38:46.027Z,8.37
2019-01-18T08:43:52.629Z,9.03
2019-01-18T08:48:58.967Z,9.40
2019-01-18T08:54:05.308Z,11.40
2019-01-18T08:59:11.632Z,13.90
2019-01-18T09:04:17.818Z,13.27
2019-01-18T09:09:24.268Z,8.80
2019-01-18T09:14:30.446Z,15.40
2019-01-18T09:19:36.929Z,13.90
2019-01-18T09:24:43.430Z,12.87
2019-01-18T09:29:49.911Z,11.13
2019-01-18T09:34:56.928Z,9.03
2019-01-18T09:40:03.299Z,13.37
2019-01-18T09:45:10.195Z,16.10
2019-01-18T09:50:18.779Z,11.70
2019-01-18T09:55:25.114Z,11.63
2019-01-18T10:00:33.669Z,12.13
2019-01-18T10:05:40.022Z,9.17
2019-01-18T10:10:46.349Z,9.03
2019-01-18T10:15:52.574Z,14.07
2019-01-18T10:20:58.878Z,11.83
2019-01-18T10:26:05.215Z,8.60
2019-01-18T10:31:11.319Z,12.87
2019-01-18T10:36:17.565Z,11.33
2019-01-18T10:41:23.789Z,10.70
2019-01-18T10:46:30.133Z,9.73
2019-01-18T10:51:36.888Z,8.47
2019-01-18T10:56:43.253Z,12.83
2019-01-18T11:01:49.547Z,10.87
2019-01-18T11:06:56.399Z,11.77
2019-01-18T11:12:02.944Z,11.23
2019-01-18T11:17:09.452Z,10.77
2019-01-18T11:22:15.643Z,14.03
2019-01-18T11:27:21.851Z,9.17
2019-01-18T11:32:28.139Z,11.77
2019-01-18T11:37:34.723Z,11.43
2019-01-18T11:42:41.098Z,13.30
2019-01-18T11:47:48.348Z,13.83
2019-01-18T11:52:54.706Z,13.80
2019-01-18T11:58:01.038Z,14.83
2019-01-18T12:03:07.517Z,13.63
2019-01-18T12:08:13.854Z,13.73
2019-01-18T12:13:20.183Z,11.33
2019-01-18T12:18:26.383Z,18.47
2019-01-18T12:23:32.765Z,18.87
2019-01-18T12:28:40.207Z,15.07
2019-01-18T12:33:46.426Z,11.97
2019-01-18T12:38:52.676Z,13.50
2019-01-18T12:43:58.943Z,12.50
2019-01-18T12:49:05.354Z,12.77
2019-01-18T12:54:11.785Z,13.57
2019-01-18T12:59:18.211Z,11.93
2019-01-18T13:04:24.511Z,14.57
2019-01-18T13:09:30.867Z,15.43
2019-01-18T13:14:37.177Z,14.50
2019-01-18T13:19:43.524Z,13.63
2019-01-18T13:24:50.274Z,14.23
2019-01-18T13:29:56.633Z,12.83
2019-01-18T13:35:03.273Z,13.00
2019-01-18T13:40:13.360Z,10.53
2019-01-18T13:45:24.267Z,17.27
2019-01-18T13:50:27.863Z,12.00
2019-01-18T13:55:34.251Z,12.57
2019-01-18T14:00:40.606Z,14.73
2019-01-18T14:05:46.849Z,13.70
2019-01-18T14:10:53.247Z,12.87
2019-01-18T14:15:59.646Z,13.83
2019-01-18T14:21:05.913Z,13.90
2019-01-18T14:26:12.276Z,11.17
2019-01-18T14:31:18.677Z,12.93
2019-01-18T14:36:25.154Z,12.97
2019-01-18T14:41:31.458Z,12.50
2019-01-18T14:46:37.890Z,15.57
2019-01-18T14:51:44.409Z,15.37
2019-01-18T14:56:50.640Z,11.00
2019-01-18T15:01:56.875Z,13.13
2019-01-18T15:07:03.183Z,15.43
2019-01-18T15:12:09.785Z,12.93
2019-01-18T15:17:16.086Z,15.07
2019-01-18T15:22:22.373Z,8.63
2019-01-18T15:27:28.572Z,15.53
2019-01-18T15:32:35.072Z,13.90
2019-01-18T15:37:41.446Z,19.23
2019-01-18T15:42:47.732Z,14.90
2019-01-18T15:47:53.962Z,16.30
2019-01-18T15:53:02.433Z,16.23
2019-01-18T15:58:09.493Z,16.23
2019-01-18T16:03:16.338Z,14.27
2019-01-18T16:08:22.752Z,19.33
2019-01-18T16:13:29.432Z,17.73
2019-01-18T16:18:36.096Z,17.57
2019-01-18T16:23:42.651Z,18.67
2019-01-18T16:28:48.873Z,23.83
2019-01-18T16:33:55.210Z,19.97
2019-01-18T16:39:01.511Z,19.87
2019-01-18T16:44:09.012Z,19.80
2019-01-18T16:49:15.328Z,22.63
2019-01-18T16:54:21.683Z,23.50
2019-01-18T16:59:28.215Z,23.93
2019-01-18T17:04:34.489Z,21.23
2019-01-18T17:09:40.824Z,24.70
2019-01-18T17:14:47.164Z,26.77
2019-01-18T17:19:53.361Z,32.50
2019-01-18T17:24:59.458Z,33.33
2019-01-18T17:30:07.604Z,34.33
2019-01-18T17:35:18.247Z,36.60
2019-01-18T17:40:35.849Z,51.93
2019-01-18T17:46:15.162Z,43.43
2019-01-18T17:52:02.550Z,45.73
2019-01-18T17:58:04.593Z,48.17
2019-01-18T18:03:52.791Z,44.70
2019-01-18T18:09:32.390Z,44.57
2019-01-18T18:15:14.450Z,37.93
2019-01-18T18:20:57.264Z,39.87
2019-01-18T18:26:46.129Z,34.73
2019-01-18T18:32:41.541Z,35.07
2019-01-18T18:38:47.147Z,29.63
2019-01-18T18:44:26.164Z,26.40
2019-01-18T18:49:54.471Z,27.23
2019-01-18T18:55:12.609Z,27.77
2019-01-18T19:00:38.351Z,24.60
2019-01-18T19:06:18.651Z,25.50
2019-01-18T19:11:59.274Z,25.73
2019-01-18T19:17:31.950Z,25.90
2019-01-18T19:23:03.382Z,23.07
2019-01-18T19:28:20.347Z,23.53
2019-01-18T19:34:05.455Z,25.10
2019-01-18T19:39:28.825Z,23.30
2019-01-18T19:45:27.972Z,22.37
2019-01-18T19:51:18.361Z,21.73
2019-01-18T19:57:07.855Z,24.00
2019-01-18T20:02:44.362Z,25.03
2019-01-18T20:08:27.145Z,30.53
2019-01-18T20:14:17.893Z,31.70
2019-01-18T20:19:56.207Z,28.07
2019-01-18T20:25:25.721Z,32.10
2019-01-18T20:30:55.868Z,32.37
2019-01-18T20:36:23.573Z,32.43
2019-01-18T20:42:09.575Z,36.07
2019-01-18T20:47:41.147Z,36.33
2019-01-18T20:53:35.162Z,44.87
2019-01-18T20:59:13.521Z,43.47
2019-01-18T21:05:06.199Z,44.97
2019-01-18T21:10:50.924Z,45.23
2019-01-18T21:16:29.745Z,49.57
2019-01-18T21:22:19.070Z,46.57
2019-01-18T21:27:41.083Z,52.10
2019-01-18T21:33:14.413Z,53.20
2019-01-18T21:38:51.430Z,52.17
2019-01-18T21:44:48.069Z,54.63
2019-01-18T21:50:12.925Z,56.43
2019-01-18T21:55:49.407Z,59.27
2019-01-18T22:01:49.600Z,55.50
2019-01-18T22:07:45.443Z,65.20
2019-01-18T22:13:11.613Z,59.40
2019-01-18T22:18:43.869Z,55.80
2019-01-18T22:24:02.847Z,53.00
2019-01-18T22:29:40.450Z,56.33
2019-01-18T22:35:12.444Z,70.73
2019-01-18T22:41:11.722Z,65.97
2019-01-18T22:47:02.186Z,62.00
2019-01-18T22:52:33.379Z,63.93
2019-01-18T22:58:17.810Z,59.67
2019-01-18T23:03:44.757Z,65.50
2019-01-18T23:09:28.250Z,67.03
2019-01-18T23:15:31.193Z,69.40
2019-01-18T23:21:09.558Z,66.03
2019-01-18T23:27:00.047Z,77.17
2019-01-18T23:33:11.512Z,74.83
2019-01-18T23:38:46.650Z,74.90
2019-01-18T23:44:33.599Z,77.03
2019-01-18T23:49:50.584Z,71.87
2019-01-18T23:55:43.951Z,75.07
